Time;durP1;ratioP1;P1;durP2;ratioP2;P2;SDS_P1;SDS_P2;PMS_P1;PMS_P2;Temp;Humidity;BMP_temperature;BMP_pressure;BME280_temperature;BME280_humidity;BME280_pressure;Samples;Min_cycle;Max_cycle;Signal;HPM_P1;HPM_P2
2022/04/05 00:01:47;;;;;;;21.52;10.68;;;;;;;8.61;94.90;100406.50;4958353;28;20119;-93
2022/04/05 00:04:12;;;;;;;20.52;10.18;;;;;;;8.59;95.13;100410.88;4966042;28;20394;-95
2022/04/05 00:06:38;;;;;;;20.95;10.13;;;;;;;8.58;95.15;100406.56;4954860;28;20023;-94
2022/04/05 00:09:03;;;;;;;19.42;9.98;;;;;;;8.58;95.26;100413.50;4964273;28;20557;-94
2022/04/05 00:11:29;;;;;;;21.30;10.65;;;;;;;8.61;94.93;100414.28;4965104;28;20123;-93
2022/04/05 00:13:54;;;;;;;19.67;10.00;;;;;;;8.63;94.78;100414.22;4957459;28;20046;-92
2022/04/05 00:16:19;;;;;;;18.00;9.48;;;;;;;8.62;94.69;100434.13;4956631;28;20486;-94
2022/04/05 00:18:45;;;;;;;17.48;9.65;;;;;;;8.66;94.80;100429.72;4953570;28;20030;-91
2022/04/05 00:21:10;;;;;;;20.83;10.32;;;;;;;8.70;94.43;100422.72;4953572;28;20055;-92
2022/04/05 00:23:35;;;;;;;19.65;10.48;;;;;;;8.70;94.31;100425.31;4954648;28;20027;-91
2022/04/05 00:26:01;;;;;;;18.63;9.25;;;;;;;8.70;94.29;100420.97;4956591;28;20115;-92
2022/04/05 00:28:27;;;;;;;15.38;8.65;;;;;;;8.75;94.04;100418.25;4958985;28;20071;-92
2022/04/05 00:30:53;;;;;;;20.58;9.93;;;;;;;8.73;93.95;100431.28;4953681;28;20121;-94
2022/04/05 00:33:18;;;;;;;20.90;9.45;;;;;;;8.76;93.80;100445.91;4954866;28;20110;-93
2022/04/05 00:35:44;;;;;;;17.15;9.35;;;;;;;8.76;93.84;100427.75;4958824;28;20034;-93
2022/04/05 00:38:09;;;;;;;18.35;9.48;;;;;;;8.75;93.85;100432.09;4959816;28;20035;-92
2022/04/05 00:40:36;;;;;;;16.33;9.00;;;;;;;8.68;94.19;100422.75;4963258;28;20390;-95
2022/04/05 00:43:05;;;;;;;16.70;8.88;;;;;;;8.66;94.36;100427.13;4958934;28;20019;-94
2022/04/05 00:45:33;;;;;;;14.43;8.35;;;;;;;8.63;94.30;100434.97;4950515;28;20390;-95
2022/04/05 00:47:59;;;;;;;17.17;9.60;;;;;;;8.61;94.47;100432.44;4957852;28;20034;-93
2022/04/05 00:50:26;;;;;;;17.50;9.20;;;;;;;8.60;94.72;100435.91;4959368;28;20364;-92
2022/04/05 00:52:51;;;;;;;16.27;8.95;;;;;;;8.57;94.74;100428.19;4937408;28;20031;-93
2022/04/05 00:55:21;;;;;;;16.70;9.07;;;;;;;8.58;94.83;100437.69;4958152;28;20512;-92
2022/04/05 00:57:48;;;;;;;17.13;8.38;;;;;;;8.54;95.04;100435.19;4964641;28;20478;-91
2022/04/05 01:00:14;;;;;;;13.02;8.15;;;;;;;8.56;94.95;100439.44;4958210;28;20061;-94
2022/04/05 01:02:41;;;;;;;14.02;8.90;;;;;;;8.54;95.17;100430.84;4956852;28;20031;-95
2022/04/05 01:05:09;;;;;;;13.13;8.23;;;;;;;8.50;95.17;100440.47;4956882;28;20578;-94
2022/04/05 01:07:44;;;;;;;14.43;7.90;;;;;;;8.48;95.32;100431.88;4955108;28;20031;-93
2022/04/05 01:10:12;;;;;;;14.70;8.15;;;;;;;8.50;95.27;100435.28;4959173;28;20035;-93
2022/04/05 01:12:48;;;;;;;;;;;;;;;;;;;;;
2022/04/05 01:15:21;;;;;;;13.50;8.27;;;;;;;8.49;95.44;100438.75;4961247;28;20035;-95
2022/04/05 01:17:46;;;;;;;16.70;8.43;;;;;;;8.50;95.22;100437.03;4956342;28;20038;-95
2022/04/05 01:20:12;;;;;;;12.60;9.02;;;;;;;8.48;95.14;100437.03;4957760;28;20051;-94
2022/04/05 01:22:47;;;;;;;14.43;9.10;;;;;;;8.46;95.33;100433.59;4954847;28;20070;-93
2022/04/05 01:25:18;;;;;;;15.35;8.25;;;;;;;8.48;95.30;100437.03;4959887;28;20129;-94
2022/04/05 01:27:43;;;;;;;14.20;9.05;;;;;;;8.50;95.28;100434.44;4954759;28;20033;-91
2022/04/05 01:30:11;;;;;;;12.35;8.52;;;;;;;8.50;95.14;100439.63;4957060;28;20035;-94
2022/04/05 01:32:38;;;;;;;14.75;8.63;;;;;;;8.48;95.29;100452.59;4960496;28;20031;-94
2022/04/05 01:35:05;;;;;;;14.90;8.77;;;;;;;8.49;95.31;100445.69;4939977;28;20082;-92
2022/04/05 01:37:33;;;;;;;14.07;9.05;;;;;;;8.48;95.03;100439.63;4957864;28;20038;-94
2022/04/05 01:40:02;;;;;;;15.50;8.88;;;;;;;8.52;95.17;100445.63;4966394;28;20070;-94
2022/04/05 01:42:28;;;;;;;13.65;9.38;;;;;;;8.48;95.21;100446.56;4955990;28;20041;-92
2022/04/05 01:44:53;;;;;;;15.13;9.05;;;;;;;8.50;94.96;100444.81;4959907;28;20114;-93
2022/04/05 01:47:19;;;;;;;14.95;10.18;;;;;;;8.47;95.15;100439.66;4958334;28;20419;-94
2022/04/05 01:49:48;;;;;;;15.77;9.10;;;;;;;8.48;95.08;100437.03;4952660;28;20034;-93
2022/04/05 01:52:14;;;;;;;17.70;10.07;;;;;;;8.49;95.20;100443.94;4960796;28;20056;-93
2022/04/05 01:54:39;;;;;;;15.10;8.88;;;;;;;8.46;95.31;100445.72;4956529;28;20050;-92
2022/04/05 01:57:05;;;;;;;14.13;9.23;;;;;;;8.45;95.57;100451.78;4961840;28;20082;-93
2022/04/05 01:59:34;;;;;;;15.35;9.55;;;;;;;8.44;95.58;100444.91;4959063;28;20495;-92
2022/04/05 02:02:03;;;;;;;13.80;8.68;;;;;;;8.44;95.46;100452.69;4957982;28;20038;-92
2022/04/05 02:04:29;;;;;;;12.68;8.70;;;;;;;8.44;95.82;100450.09;4955511;28;20498;-93
2022/04/05 02:06:54;;;;;;;12.32;8.48;;;;;;;8.41;95.56;100444.97;4944590;28;20073;-92
2022/04/05 02:09:19;;;;;;;13.48;8.52;;;;;;;8.43;95.57;100449.25;4956106;28;20394;-91
2022/04/05 02:11:47;;;;;;;12.43;8.40;;;;;;;8.42;95.74;100450.13;4961509;28;20695;-92
2022/04/05 02:14:13;;;;;;;11.27;8.25;;;;;;;8.41;95.78;100444.97;4956783;28;20091;-91
2022/04/05 02:16:39;;;;;;;12.45;8.75;;;;;;;8.41;95.67;100455.34;4955481;28;20168;-91
2022/04/05 02:19:04;;;;;;;11.80;8.10;;;;;;;8.41;95.43;100451.03;4957300;28;20716;-91
2022/04/05 02:21:30;;;;;;;14.73;8.13;;;;;;;8.40;95.49;100453.63;4956233;28;20094;-92
2022/04/05 02:23:55;;;;;;;12.32;8.63;;;;;;;8.39;95.67;100446.75;4957738;28;20122;-92
2022/04/05 02:26:20;;;;;;;17.23;8.82;;;;;;;8.37;95.59;100449.38;4960033;28;20027;-92
2022/04/05 02:28:47;;;;;;;16.00;9.55;;;;;;;8.37;95.73;100448.53;4955537;28;20430;-92
2022/04/05 02:31:13;;;;;;;14.35;9.20;;;;;;;8.37;95.63;100464.94;4956790;28;20027;-92
2022/04/05 02:33:39;;;;;;;14.65;9.38;;;;;;;8.37;95.48;100459.75;4955486;28;20058;-91
2022/04/05 02:36:04;;;;;;;16.55;9.57;;;;;;;8.34;95.74;100452.91;4963874;28;20106;-92
2022/04/05 02:38:31;;;;;;;12.65;9.27;;;;;;;8.33;95.74;100463.28;4960076;28;20568;-92
2022/04/05 02:40:57;;;;;;;17.35;10.13;;;;;;;8.34;95.64;100468.47;4958722;28;20027;-92
2022/04/05 02:43:23;;;;;;;20.75;10.57;;;;;;;8.33;95.59;100458.09;4955132;28;20402;-92
2022/04/05 02:45:49;;;;;;;18.70;10.98;;;;;;;8.33;95.36;100458.09;4956744;28;20062;-92
2022/04/05 02:48:14;;;;;;;18.33;10.50;;;;;;;8.32;95.64;100457.28;4958972;28;20495;-92
2022/04/05 02:50:40;;;;;;;16.98;10.23;;;;;;;8.33;95.65;100458.97;4956319;28;20037;-92
2022/04/05 02:53:06;;;;;;;16.67;10.40;;;;;;;8.31;95.45;100457.28;4958770;28;20034;-92
2022/04/05 02:55:31;;;;;;;15.85;9.88;;;;;;;8.29;95.42;100448.69;4956085;28;20043;-93
2022/04/05 02:57:56;;;;;;;17.48;9.25;;;;;;;8.29;95.46;100452.16;4957543;28;20027;-93
2022/04/05 03:00:22;;;;;;;18.77;9.68;;;;;;;8.29;95.60;100456.47;4956646;28;20031;-92
2022/04/05 03:02:47;;;;;;;17.85;9.82;;;;;;;8.29;95.63;100452.16;4955264;28;20035;-93
2022/04/05 03:05:18;;;;;;;15.23;8.98;;;;;;;8.28;95.67;100440.06;4955885;28;20030;-93
2022/04/05 03:07:43;;;;;;;12.13;8.10;;;;;;;8.28;95.48;100449.59;4959014;28;20469;-92
2022/04/05 03:10:10;;;;;;;15.10;8.48;;;;;;;8.26;95.71;100452.22;4960788;28;20073;-92
2022/04/05 03:12:36;;;;;;;14.85;9.05;;;;;;;8.27;95.51;100447.91;4955578;28;20118;-93
2022/04/05 03:15:03;;;;;;;16.27;8.90;;;;;;;8.27;95.61;100453.91;4957553;28;20118;-94
2022/04/05 03:17:28;;;;;;;15.45;8.68;;;;;;;8.29;95.42;100453.88;4956614;28;20496;-93
2022/04/05 03:19:53;;;;;;;14.32;8.70;;;;;;;8.26;95.43;100457.41;4956955;28;20051;-93
2022/04/05 03:22:20;;;;;;;13.63;8.35;;;;;;;8.26;95.52;100456.56;4939107;28;20038;-92
2022/04/05 03:24:45;;;;;;;16.67;9.13;;;;;;;8.27;95.29;100453.91;4962359;28;20027;-93
2022/04/05 03:27:11;;;;;;;15.35;9.10;;;;;;;8.26;95.41;100454.81;4960230;28;20064;-91
2022/04/05 03:29:36;;;;;;;15.95;8.95;;;;;;;8.25;95.21;100450.50;4974881;28;20030;-92
2022/04/05 03:32:02;;;;;;;14.98;9.43;;;;;;;8.26;95.06;100452.22;4962872;28;20470;-92
2022/04/05 03:34:28;;;;;;;14.10;8.80;;;;;;;8.25;95.34;100450.50;4957782;28;20027;-93
2022/04/05 03:36:54;;;;;;;13.23;8.20;;;;;;;8.26;95.21;100452.22;4957104;28;20102;-92
2022/04/05 03:39:19;;;;;;;12.85;8.20;;;;;;;8.26;94.98;100452.22;4958810;28;20158;-92
2022/04/05 03:41:44;;;;;;;12.68;7.88;;;;;;;8.25;95.21;100442.72;4938440;28;20779;-94
2022/04/05 03:44:10;;;;;;;15.05;8.25;;;;;;;8.25;95.21;100447.91;4961268;28;20121;-94
2022/04/05 03:46:35;;;;;;;12.93;7.72;;;;;;;8.25;95.27;100447.06;4955678;28;20667;-93
2022/04/05 03:49:00;;;;;;;11.73;7.78;;;;;;;8.25;95.46;100436.72;4955773;28;20050;-91
2022/04/05 03:51:26;;;;;;;12.32;7.60;;;;;;;8.24;95.50;100443.63;4956554;28;20027;-92
2022/04/05 03:53:54;;;;;;;13.00;8.68;;;;;;;8.24;95.42;100443.63;4958354;28;20133;-94
2022/04/05 03:56:19;;;;;;;12.50;8.52;;;;;;;8.25;95.19;100442.72;4958609;28;20054;-93
2022/04/05 03:58:44;;;;;;;14.55;8.70;;;;;;;8.25;95.36;100447.06;4955107;28;20121;-94
2022/04/05 04:01:10;;;;;;;13.20;8.82;;;;;;;8.25;95.44;100444.50;4959066;28;20108;-91
2022/04/05 04:03:35;;;;;;;11.40;8.30;;;;;;;8.26;95.27;100436.66;4958402;28;20037;-91
2022/04/05 04:06:00;;;;;;;12.45;8.13;;;;;;;8.26;95.47;100439.25;4956294;28;20062;-91
2022/04/05 04:08:26;;;;;;;13.40;7.93;;;;;;;8.25;95.36;100440.16;4939780;28;20086;-92
2022/04/05 04:10:52;;;;;;;12.32;7.80;;;;;;;8.25;95.43;100440.16;4953769;28;20038;-92
2022/04/05 04:13:18;;;;;;;12.05;7.78;;;;;;;8.26;95.36;100436.66;4946538;28;20015;-91
2022/04/05 04:15:43;;;;;;;13.32;7.63;;;;;;;8.27;95.49;100438.38;4960606;28;20111;-91
2022/04/05 04:18:08;;;;;;;12.50;7.75;;;;;;;8.27;95.49;100434.94;4956217;28;20054;-94
2022/04/05 04:20:34;;;;;;;10.63;7.13;;;;;;;8.29;95.36;100438.31;4954760;28;20454;-93
2022/04/05 04:22:59;;;;;;;13.02;7.57;;;;;;;8.28;94.88;100436.66;4955422;28;20031;-91
2022/04/05 04:25:24;;;;;;;15.57;8.38;;;;;;;8.28;95.39;100445.25;4955501;28;20031;-92
2022/04/05 04:27:50;;;;;;;12.52;7.22;;;;;;;8.28;95.22;100440.06;4957578;28;20102;-93
2022/04/05 04:30:15;;;;;;;11.90;7.45;;;;;;;8.27;95.22;100438.38;4955286;28;20046;-91
2022/04/05 04:32:40;;;;;;;12.25;7.55;;;;;;;8.29;95.21;100446.09;4956187;28;20034;-93
2022/04/05 04:35:08;;;;;;;14.38;7.72;;;;;;;8.28;95.19;100434.91;4955615;28;20510;-95
2022/04/05 04:37:33;;;;;;;13.65;7.50;;;;;;;8.29;95.10;100443.50;4958550;28;20028;-92
2022/04/05 04:39:59;;;;;;;11.70;7.50;;;;;;;8.29;95.19;100440.91;5012388;23;20046;-94
2022/04/05 04:42:24;;;;;;;14.38;7.32;;;;;;;8.28;95.18;100440.06;4973292;28;20094;-94
2022/04/05 04:44:50;;;;;;;13.05;7.40;;;;;;;8.34;94.61;100434.75;4972306;28;20026;-93
2022/04/05 04:47:19;;;;;;;12.63;7.53;;;;;;;8.30;94.75;100438.31;4972035;28;20022;-92
2022/04/05 04:49:44;;;;;;;12.02;6.90;;;;;;;8.31;95.01;100441.72;4973166;28;20030;-92
2022/04/05 04:52:10;;;;;;;11.85;7.57;;;;;;;8.31;94.81;100437.41;4971065;28;20105;-93
2022/04/05 04:54:35;;;;;;;12.52;7.57;;;;;;;8.30;94.92;100451.25;4971178;28;20034;-92
2022/04/05 04:57:01;;;;;;;13.00;7.72;;;;;;;8.31;94.68;100445.19;4971837;28;20030;-94
2022/04/05 04:59:26;;;;;;;17.33;7.97;;;;;;;8.31;94.88;100444.31;4971974;28;20023;-91
2022/04/05 05:01:51;;;;;;;12.68;8.02;;;;;;;8.29;94.77;100441.78;4980779;28;20011;-92
2022/04/05 05:04:16;;;;;;;14.35;7.53;;;;;;;8.29;94.61;100441.78;4996080;28;20030;-91
2022/04/05 05:06:42;;;;;;;10.25;6.47;;;;;;;8.29;95.28;100454.75;4976806;28;20502;-93
2022/04/05 05:09:07;;;;;;;12.52;7.13;;;;;;;8.29;94.69;100449.56;4970429;28;20030;-91
2022/04/05 05:11:33;;;;;;;13.73;7.57;;;;;;;8.29;94.82;100448.69;4976574;28;20090;-92
2022/04/05 05:13:59;;;;;;;11.30;7.10;;;;;;;8.29;95.35;100451.28;4954384;28;20073;-92
2022/04/05 05:16:24;;;;;;;11.05;7.43;;;;;;;8.29;94.87;100454.75;4961582;28;20063;-92
2022/04/05 05:18:49;;;;;;;13.05;8.20;;;;;;;8.30;94.72;100451.25;4971911;28;20954;-90
2022/04/05 05:21:15;;;;;;;13.05;7.93;;;;;;;8.30;95.03;100459.03;4971568;28;20030;-93
2022/04/05 05:23:40;;;;;;;12.05;7.93;;;;;;;8.30;94.85;100453.84;4973139;28;20260;-94
2022/04/05 05:26:05;;;;;;;12.23;7.20;;;;;;;8.28;94.93;100458.22;4969884;28;20169;-91
2022/04/05 05:28:30;;;;;;;13.07;8.02;;;;;;;8.33;94.73;100458.09;4970116;28;20418;-93
2022/04/05 05:30:56;;;;;;;12.82;7.72;;;;;;;8.30;94.82;100459.03;4970127;28;20482;-93
2022/04/05 05:33:21;;;;;;;12.02;8.02;;;;;;;8.31;94.85;100454.69;4969841;28;20144;-92
2022/04/05 05:35:47;;;;;;;14.82;8.63;;;;;;;8.37;94.64;100458.91;4969687;28;20039;-92
2022/04/05 05:38:12;;;;;;;12.85;8.00;;;;;;;8.32;95.05;100457.28;4971202;28;20034;-92
2022/04/05 05:40:37;;;;;;;13.25;8.07;;;;;;;8.31;94.87;100460.75;4934459;28;20056;-91
2022/04/05 05:43:04;;;;;;;13.95;8.20;;;;;;;8.31;95.21;100455.56;4931007;29;20055;-92
2022/04/05 05:45:35;;;;;;;11.20;7.13;;;;;;;8.30;95.36;100464.22;4931698;28;20057;-91
2022/04/05 05:48:01;;;;;;;12.35;7.60;;;;;;;8.34;94.80;100465.00;4945269;28;20042;-91
2022/04/05 05:50:26;;;;;;;12.38;7.63;;;;;;;8.32;94.92;100461.59;4932402;29;20036;-92
2022/04/05 05:52:52;;;;;;;12.77;7.90;;;;;;;8.32;95.08;100472.81;4930929;29;20632;-93
2022/04/05 05:55:20;;;;;;;11.98;7.03;;;;;;;8.34;95.23;100476.25;4930862;29;20209;-91
2022/04/05 05:57:46;;;;;;;11.57;7.38;;;;;;;8.34;95.16;100475.38;4929822;29;20035;-94
2022/04/05 06:00:20;;;;;;;10.80;7.05;;;;;;;8.34;95.24;100486.59;4930864;29;20431;-93
2022/04/05 06:02:47;;;;;;;11.90;8.07;;;;;;;8.37;95.06;100479.66;4929479;29;20442;-91
2022/04/05 06:05:12;;;;;;;10.55;7.68;;;;;;;8.35;95.02;100477.94;4931426;29;20045;-93
2022/04/05 06:07:38;;;;;;;13.13;7.82;;;;;;;8.37;95.01;100474.47;4929153;28;20114;-92
2022/04/05 06:10:05;;;;;;;14.30;7.72;;;;;;;8.37;95.19;100484.84;4930154;29;20135;-93
2022/04/05 06:12:31;;;;;;;11.60;7.95;;;;;;;8.36;95.11;100483.97;4930490;29;20027;-93
2022/04/05 06:14:56;;;;;;;12.80;7.88;;;;;;;8.37;95.11;100484.84;4932304;28;20043;-91
2022/04/05 06:17:22;;;;;;;15.02;8.52;;;;;;;8.38;95.08;100486.50;4932110;29;20035;-92
2022/04/05 06:19:47;;;;;;;13.95;8.15;;;;;;;8.41;94.89;100487.31;4932693;29;20103;-91
2022/04/05 06:22:13;;;;;;;13.48;8.73;;;;;;;8.37;95.21;100485.66;4931325;29;21813;-92
2022/04/05 06:24:39;;;;;;;13.43;8.43;;;;;;;8.40;95.04;100492.50;4930229;29;20040;-93
2022/04/05 06:27:05;;;;;;;11.65;7.30;;;;;;;8.40;94.85;100489.94;4930135;29;20053;-91
2022/04/05 06:29:33;;;;;;;14.85;8.77;;;;;;;8.42;95.14;100493.34;4929965;28;20506;-94
2022/04/05 06:31:59;;;;;;;12.38;8.23;;;;;;;8.42;95.63;100493.34;4950961;28;20058;-92
2022/04/05 06:34:25;;;;;;;13.63;8.40;;;;;;;8.44;95.11;100496.75;4932544;29;20075;-94
2022/04/05 06:36:50;;;;;;;12.23;8.23;;;;;;;8.45;95.06;100499.34;4933582;29;20106;-93
2022/04/05 06:39:15;;;;;;;15.32;8.10;;;;;;;8.47;95.03;100497.53;4940353;28;20031;-93
2022/04/05 06:41:41;;;;;;;13.65;8.15;;;;;;;8.49;95.09;100500.97;4971174;28;20106;-92
2022/04/05 06:44:07;;;;;;;14.13;7.78;;;;;;;8.50;95.22;100499.25;4969807;28;20150;-93
2022/04/05 06:46:32;;;;;;;14.05;8.07;;;;;;;8.53;95.20;100501.78;4969882;28;20063;-91
2022/04/05 06:48:57;;;;;;;14.00;8.00;;;;;;;8.57;94.89;100510.34;4969833;28;20038;-94
2022/04/05 06:51:24;;;;;;;15.05;8.43;;;;;;;8.59;94.84;100512.00;4970177;28;20125;-93
2022/04/05 06:53:50;;;;;;;13.90;7.90;;;;;;;8.59;94.60;100506.81;4970099;28;20058;-94
2022/04/05 06:56:15;;;;;;;12.68;7.88;;;;;;;8.61;94.67;100511.97;4969282;28;20121;-92
2022/04/05 06:58:40;;;;;;;17.73;8.50;;;;;;;8.62;94.63;100505.91;4965973;28;20034;-95
2022/04/05 07:01:06;;;;;;;14.18;7.85;;;;;;;8.62;94.46;100517.13;4965408;28;20046;-93
2022/04/05 07:03:31;;;;;;;14.23;7.80;;;;;;;8.64;94.44;100515.34;4967438;28;20438;-94
2022/04/05 07:05:58;;;;;;;12.30;7.90;;;;;;;8.64;94.41;100515.34;4970391;28;20035;-92
2022/04/05 07:08:23;;;;;;;13.52;7.57;;;;;;;8.66;94.24;100512.69;4952258;28;20677;-91
2022/04/05 07:10:50;;;;;;;13.40;7.15;;;;;;;8.65;94.29;100519.63;4971017;28;20166;-92
2022/04/05 07:13:15;;;;;;;12.02;7.10;;;;;;;8.66;94.27;100517.88;4968702;28;20076;-92
2022/04/05 07:15:40;;;;;;;13.73;7.68;;;;;;;8.69;94.16;100522.16;4968897;28;20038;-92
2022/04/05 07:18:06;;;;;;;13.40;8.00;;;;;;;8.68;94.03;100517.88;4968368;28;20191;-92
2022/04/05 07:20:32;;;;;;;11.93;7.25;;;;;;;8.68;94.36;100525.66;4971495;28;20033;-92
2022/04/05 07:22:57;;;;;;;13.07;7.10;;;;;;;8.69;94.17;100514.38;4968362;28;20039;-92
2022/04/05 07:25:23;;;;;;;13.52;7.25;;;;;;;8.72;93.91;100512.56;4967948;28;20042;-91
2022/04/05 07:27:49;;;;;;;13.05;6.78;;;;;;;8.73;93.66;100508.22;4968257;28;20031;-91
2022/04/05 07:30:15;;;;;;;11.07;7.13;;;;;;;8.74;93.86;100517.72;4969748;28;20050;-93
2022/04/05 07:32:43;;;;;;;11.50;6.82;;;;;;;8.77;93.78;100509.84;4969044;28;20030;-92
2022/04/05 07:35:09;;;;;;;11.70;7.03;;;;;;;8.78;93.69;100516.75;4953757;28;20041;-91
2022/04/05 07:37:35;;;;;;;11.32;7.40;;;;;;;8.79;93.67;100510.69;4970003;28;20030;-91
2022/04/05 07:40:03;;;;;;;13.60;7.00;;;;;;;8.81;93.74;100511.50;4968168;28;20050;-91
2022/04/05 07:42:28;;;;;;;10.52;6.80;;;;;;;8.85;93.50;100509.69;4951452;28;20026;-92
2022/04/05 07:44:54;;;;;;;11.60;6.70;;;;;;;8.90;93.76;100516.44;4966859;28;20050;-92
2022/04/05 07:47:19;;;;;;;10.40;6.35;;;;;;;8.94;93.56;100512.91;4968755;28;20026;-94
2022/04/05 07:49:45;;;;;;;12.45;6.32;;;;;;;8.95;93.48;100509.41;4966730;28;20043;-92
2022/04/05 07:52:11;;;;;;;12.35;6.65;;;;;;;8.99;93.38;100519.72;4967222;28;20041;-93
2022/04/05 07:54:36;;;;;;;12.68;6.22;;;;;;;8.97;93.51;100517.16;4963918;28;20037;-93
2022/04/05 07:57:03;;;;;;;12.88;6.80;;;;;;;8.97;93.26;100517.16;4965975;28;20042;-95
2022/04/05 07:59:28;;;;;;;12.05;6.22;;;;;;;8.97;93.66;100519.75;4976114;28;20050;-92
2022/04/05 08:01:54;;;;;;;11.98;6.25;;;;;;;8.97;93.29;100517.16;4968325;28;20070;-90
2022/04/05 08:04:20;;;;;;;11.88;5.88;;;;;;;8.96;93.72;100521.50;4952683;28;20031;-92
2022/04/05 08:06:45;;;;;;;15.75;6.20;;;;;;;8.95;93.58;100525.00;4968863;28;20039;-91
2022/04/05 08:09:10;;;;;;;11.45;6.32;;;;;;;8.94;93.12;100523.28;4969424;28;20062;-94
2022/04/05 08:11:36;;;;;;;10.57;6.13;;;;;;;8.96;93.22;100520.66;4946858;28;20089;-94
2022/04/05 08:14:01;;;;;;;10.88;5.93;;;;;;;8.96;92.78;100521.50;4965358;28;20038;-91
2022/04/05 08:16:26;;;;;;;11.10;6.32;;;;;;;8.97;93.00;100522.34;4964926;28;20386;-91
2022/04/05 08:18:52;;;;;;;11.05;5.53;;;;;;;8.98;92.61;100523.22;4967722;28;20030;-93
2022/04/05 08:21:19;;;;;;;11.93;5.68;;;;;;;8.98;92.51;100525.81;4945711;28;20031;-92
2022/04/05 08:23:44;;;;;;;12.70;5.78;;;;;;;8.99;92.78;100530.09;4964121;28;20066;-90
2022/04/05 08:26:09;;;;;;;11.07;5.80;;;;;;;9.01;92.68;100528.34;4948870;28;20931;-92
2022/04/05 08:28:37;;;;;;;9.40;5.50;;;;;;;9.01;92.35;100536.13;4966803;28;20042;-92
2022/04/05 08:31:03;;;;;;;11.00;5.85;;;;;;;9.00;92.32;100534.41;4967962;28;20078;-90
2022/04/05 08:33:28;;;;;;;12.63;5.55;;;;;;;9.02;92.35;100538.66;4965550;28;20645;-90
2022/04/05 08:35:55;;;;;;;10.38;5.65;;;;;;;9.05;92.49;100540.34;4966219;28;20089;-90
2022/04/05 08:38:21;;;;;;;10.82;5.30;;;;;;;9.08;92.24;100532.47;4967579;28;20050;-91
2022/04/05 08:40:46;;;;;;;9.68;5.57;;;;;;;9.10;92.03;100533.28;4966610;28;20047;-92
2022/04/05 08:43:11;;;;;;;11.07;5.53;;;;;;;9.12;92.13;100541.88;4971922;28;20157;-88
2022/04/05 08:45:37;;;;;;;10.30;5.40;;;;;;;9.16;92.14;100542.66;4965613;28;20109;-91
2022/04/05 08:48:09;;;;;;;9.80;5.13;;;;;;;9.23;92.25;100544.22;4964824;28;20500;-90
2022/04/05 08:50:35;;;;;;;10.98;5.32;;;;;;;9.33;91.69;100544.84;4965775;28;20058;-95
2022/04/05 08:53:01;;;;;;;9.05;4.97;;;;;;;9.37;92.07;100546.47;4966904;28;20837;-91
2022/04/05 08:55:28;;;;;;;9.38;4.80;;;;;;;9.46;91.47;100545.38;4964751;28;20117;-94
2022/04/05 08:57:55;;;;;;;9.88;5.15;;;;;;;9.51;91.07;100552.16;4962817;28;20035;-90
2022/04/05 09:00:21;;;;;;;13.27;5.35;;;;;;;9.49;91.21;100548.75;4964035;28;20038;-90
2022/04/05 09:03:05;;;;;;;10.27;5.15;;;;;;;9.48;91.54;100549.63;4945366;28;20145;-90
2022/04/05 09:05:44;;;;;;;8.68;4.65;;;;;;;9.46;91.24;100553.19;4948878;28;20030;-88
2022/04/05 09:08:26;;;;;;;7.63;4.45;;;;;;;9.47;91.21;100545.34;4960640;28;20117;-89
2022/04/05 09:10:52;;;;;;;7.57;4.90;;;;;;;9.47;91.47;100553.13;4964040;28;20105;-89
2022/04/05 09:13:25;;;;;;;7.72;4.72;;;;;;;9.47;91.34;100557.47;4963931;28;20026;-88
2022/04/05 09:15:54;;;;;;;7.57;4.50;;;;;;;9.44;91.36;100566.19;4964031;28;20453;-88
2022/04/05 09:18:35;;;;;;;7.38;4.72;;;;;;;9.52;91.17;100553.88;4963876;28;20035;-89
2022/04/05 09:21:03;;;;;;;6.40;4.78;;;;;;;9.57;91.31;100554.56;4964309;28;20466;-89
2022/04/05 09:23:33;;;;;;;7.68;4.85;;;;;;;9.62;91.55;100551.03;4962507;28;20039;-89
2022/04/05 09:26:04;;;;;;;10.48;5.32;;;;;;;9.64;91.59;100549.25;4963478;28;20031;-87
2022/04/05 09:28:35;;;;;;;9.48;5.18;;;;;;;9.67;91.22;100549.16;4964547;28;20104;-88
2022/04/05 09:31:03;;;;;;;7.73;5.00;;;;;;;9.69;91.65;100552.56;4961785;28;20057;-87
2022/04/05 09:33:31;;;;;;;8.63;5.07;;;;;;;9.75;91.47;100560.19;4962812;28;20027;-86
2022/04/05 09:36:09;;;;;;;8.30;5.20;;;;;;;9.76;91.48;100553.25;4960957;28;20149;-87
2022/04/05 09:38:38;;;;;;;9.25;4.97;;;;;;;9.72;91.24;100558.53;4962157;28;20508;-89
2022/04/05 09:41:15;;;;;;;7.88;4.50;;;;;;;9.69;91.05;100563.81;4962676;28;20078;-88
2022/04/05 09:43:52;;;;;;;7.80;5.05;;;;;;;9.67;90.91;100559.56;4961334;28;20027;-89
2022/04/05 09:46:19;;;;;;;8.40;4.90;;;;;;;9.65;90.98;100566.53;4962131;28;20031;-93
2022/04/05 09:48:46;;;;;;;8.15;4.28;;;;;;;9.64;90.59;100570.00;4969463;28;20026;-92
2022/04/05 09:51:16;;;;;;;8.77;4.60;;;;;;;9.67;90.06;100560.38;4973346;28;20085;-92
2022/04/05 09:53:51;;;;;;;9.13;4.90;;;;;;;9.72;90.81;100568.09;4978677;28;20027;-94
2022/04/05 09:56:17;;;;;;;7.32;5.00;;;;;;;9.82;90.59;100559.13;4955293;28;20026;-93
2022/04/05 09:58:47;;;;;;;7.53;5.28;;;;;;;9.86;90.95;100558.16;4968439;28;20105;-93
2022/04/05 10:01:17;;;;;;;7.40;5.13;;;;;;;9.98;90.14;100566.50;4965960;28;20091;-93
2022/04/05 10:03:43;;;;;;;7.93;5.32;;;;;;;10.02;90.80;100562.94;4962840;28;20081;-88
2022/04/05 10:06:09;;;;;;;7.55;4.70;;;;;;;10.07;90.25;100562.81;4966394;28;20487;-92
2022/04/05 10:08:37;;;;;;;9.65;4.78;;;;;;;10.05;89.89;100568.06;4951177;28;20022;-93
2022/04/05 10:11:04;;;;;;;7.40;4.25;;;;;;;10.03;89.50;100567.25;4966818;28;20058;-92
2022/04/05 10:13:33;;;;;;;6.88;4.43;;;;;;;9.95;89.97;100569.19;4968094;28;20071;-94
2022/04/05 10:16:00;;;;;;;6.07;4.40;;;;;;;9.95;90.48;100569.19;4942860;28;20110;-91
2022/04/05 10:18:32;;;;;;;6.72;4.30;;;;;;;9.94;90.52;100583.06;4965888;28;20111;-96
2022/04/05 10:20:58;;;;;;;8.52;4.50;;;;;;;9.94;90.34;100575.28;4964265;28;20806;-93
2022/04/05 10:23:35;;;;;;;6.82;4.63;;;;;;;9.95;90.56;100579.56;4970766;28;20445;-94
2022/04/05 10:26:01;;;;;;;6.97;4.22;;;;;;;9.86;90.57;100576.34;4955732;28;20026;-94
2022/04/05 10:28:32;;;;;;;5.72;3.85;;;;;;;9.85;90.41;100578.97;4970187;28;20041;-94
2022/04/05 10:31:10;;;;;;;6.97;3.95;;;;;;;9.83;90.78;100573.84;4964447;28;20084;-92
2022/04/05 10:33:49;;;;;;;6.10;4.32;;;;;;;9.83;90.64;100580.75;4963132;28;20030;-93
2022/04/05 10:36:51;;;;;;;5.95;4.05;;;;;;;9.83;90.81;100576.44;4964943;28;20030;-94
2022/04/05 10:39:22;;;;;;;7.97;4.60;;;;;;;9.82;90.52;100577.31;4950737;28;20553;-93
2022/04/05 10:42:11;;;;;;;6.90;4.38;;;;;;;9.82;90.61;100590.31;4962619;28;20046;-93
2022/04/05 10:44:48;;;;;;;7.55;3.85;;;;;;;9.86;90.00;100576.34;4940605;28;20050;-93
2022/04/05 10:47:16;;;;;;;6.15;4.05;;;;;;;9.81;90.02;100582.56;4974210;28;20038;-95
2022/04/05 10:49:51;;;;;;;6.30;4.15;;;;;;;9.87;89.90;100574.59;4968045;28;20039;-94
2022/04/05 10:52:31;;;;;;;8.73;4.30;;;;;;;9.90;89.86;100582.31;4971760;28;20074;-94
2022/04/05 11:06:15;;;;;;;7.43;4.30;;;;;;;10.06;88.42;100569.75;4979351;28;20041;-95
2022/04/05 11:08:53;;;;;;;;;;;;;;;;;;;;;
2022/04/05 11:11:19;;;;;;;10.40;3.95;;;;;;;10.01;88.61;100571.63;4996706;28;20041;-95
2022/04/05 11:14:04;;;;;;;7.32;3.95;;;;;;;10.06;88.53;100589.69;5001174;28;20109;-96
2022/04/05 11:16:30;;;;;;;7.97;3.80;;;;;;;10.13;88.17;100573.03;5001594;28;20033;-94
2022/04/05 11:18:57;;;;;;;5.28;3.35;;;;;;;10.27;88.44;100583.00;5011930;28;20033;-94
2022/04/05 11:21:23;;;;;;;7.63;4.07;;;;;;;10.40;88.96;100566.22;5009724;28;20072;-94
2022/04/05 11:23:51;;;;;;;7.30;3.92;;;;;;;10.57;87.74;100576.09;5006739;28;20399;-94
2022/04/05 11:26:35;;;;;;;5.82;3.67;;;;;;;10.70;87.14;100567.91;5006579;28;20076;-94
2022/04/05 11:29:16;;;;;;;6.70;3.78;;;;;;;10.80;86.38;100563.28;5007192;28;20037;-95
2022/04/05 11:31:42;;;;;;;5.95;3.80;;;;;;;10.95;86.00;100567.16;4988867;28;20376;-96
2022/04/05 11:34:46;;;;;;;5.20;3.55;;;;;;;11.09;86.39;100572.78;5005827;28;20046;-93
2022/04/05 11:37:12;;;;;;;6.65;3.75;;;;;;;11.14;84.09;100572.63;4961957;28;20400;-96
2022/04/05 11:39:42;;;;;;;7.75;3.40;;;;;;;11.18;85.06;100563.81;5003199;28;20500;-95
2022/04/05 11:42:11;;;;;;;5.90;3.60;;;;;;;11.23;83.56;100570.56;5019689;28;20041;-94